createdAt,value
2018-11-14T00:01:13.377Z,102716.27
2018-11-14T00:03:43.157Z,102719.92
2018-11-14T00:06:13.138Z,102718.45
2018-11-14T00:08:42.890Z,102731.08
2018-11-14T00:11:12.635Z,102723.41
2018-11-14T00:13:42.659Z,102720.03
2018-11-14T00:16:12.484Z,102720.62
2018-11-14T00:18:42.344Z,102721.81
2018-11-14T00:21:12.148Z,102720.68
2018-11-14T00:23:41.875Z,102712.34
2018-11-14T00:26:12.248Z,102713.90
2018-11-14T00:28:42.035Z,102707.20
2018-11-14T00:31:12.399Z,102708.76
2018-11-14T00:33:42.209Z,102704.59
2018-11-14T00:36:11.960Z,102703.50
2018-11-14T00:38:41.920Z,102702.70
2018-11-14T00:41:12.482Z,102696.12
2018-11-14T00:43:42.885Z,102698.55
2018-11-14T00:46:12.712Z,102704.37
2018-11-14T00:48:42.566Z,102700.97
2018-11-14T00:51:12.415Z,102705.42
2018-11-14T00:53:42.160Z,102702.91
2018-11-14T00:56:11.989Z,102709.86
2018-11-14T00:58:41.758Z,102711.70
2018-11-14T01:01:11.600Z,102715.17
2018-11-14T01:03:41.350Z,102713.84
2018-11-14T01:06:11.749Z,102709.13
2018-11-14T01:08:41.471Z,102717.23
2018-11-14T01:11:12.199Z,102716.14
2018-11-14T01:13:43.091Z,102721.51
2018-11-14T01:16:12.907Z,102719.16
2018-11-14T01:18:42.833Z,102721.59
2018-11-14T01:21:12.758Z,102718.48
2018-11-14T01:23:42.527Z,102722.97
2018-11-14T01:26:12.324Z,102713.39
2018-11-14T01:28:42.312Z,102717.83
2018-11-14T01:31:12.002Z,102714.36
2018-11-14T01:33:41.818Z,102719.16
2018-11-14T01:36:11.568Z,102716.41
2018-11-14T01:38:41.608Z,102716.04
2018-11-14T01:41:11.604Z,102724.52
2018-11-14T01:43:41.382Z,102722.69
2018-11-14T01:46:11.137Z,102723.20
2018-11-14T01:48:40.883Z,102723.34
2018-11-14T01:51:10.815Z,102719.30
2018-11-14T01:53:41.156Z,102728.28
2018-11-14T01:56:11.177Z,102727.50
2018-11-14T01:58:41.099Z,102734.87
2018-11-14T02:01:10.906Z,102723.73
2018-11-14T02:03:40.723Z,102732.27
2018-11-14T02:06:10.391Z,102727.41
2018-11-14T02:08:40.304Z,102730.08
2018-11-14T02:11:09.995Z,102727.13
2018-11-14T02:13:39.841Z,102732.53
2018-11-14T02:16:09.568Z,102722.87
2018-11-14T02:18:39.292Z,102726.55
2018-11-14T02:21:08.987Z,102729.20
2018-11-14T02:23:38.690Z,102730.67
2018-11-14T02:26:08.511Z,102718.57
2018-11-14T02:28:38.243Z,102715.04
2018-11-14T02:31:08.279Z,102715.04
2018-11-14T02:33:38.208Z,102705.31
2018-11-14T02:36:08.179Z,102704.86
2018-11-14T02:38:38.044Z,102710.77
2018-11-14T02:41:07.855Z,102713.94
2018-11-14T02:43:37.842Z,102710.32
2018-11-14T02:46:08.710Z,102706.33
2018-11-14T02:48:38.496Z,102699.64
2018-11-14T02:51:26.071Z,102696.67
2018-11-14T02:53:56.032Z,102701.47
2018-11-14T02:56:25.674Z,102699.23
2018-11-14T02:58:55.450Z,102696.53
2018-11-14T03:01:25.393Z,102691.66
2018-11-14T03:03:55.164Z,102683.84
2018-11-14T03:06:24.836Z,102688.05
2018-11-14T03:08:54.594Z,102687.00
2018-11-14T03:11:24.265Z,102695.42
2018-11-14T03:13:54.190Z,102694.61
2018-11-14T03:16:23.966Z,102690.28
2018-11-14T03:18:53.734Z,102694.55
2018-11-14T03:21:23.672Z,102695.05
2018-11-14T03:23:54.294Z,102687.82
2018-11-14T03:26:24.004Z,102684.37
2018-11-14T03:28:53.674Z,102687.25
2018-11-14T03:31:23.394Z,102682.73
2018-11-14T03:33:53.238Z,102685.25
2018-11-14T03:36:22.933Z,102678.75
2018-11-14T03:38:52.706Z,102676.27
2018-11-14T03:41:22.487Z,102676.17
2018-11-14T03:43:52.308Z,102673.38
2018-11-14T03:46:22.055Z,102674.80
2018-11-14T03:48:51.802Z,102672.05
2018-11-14T03:51:21.565Z,102672.73
2018-11-14T03:53:51.533Z,102670.20
2018-11-14T03:56:21.363Z,102670.72
2018-11-14T03:58:51.160Z,102670.43
2018-11-14T04:01:21.186Z,102673.53
2018-11-14T04:03:50.870Z,102669.91
2018-11-14T04:06:20.827Z,102667.39
2018-11-14T04:08:50.732Z,102670.36
2018-11-14T04:11:20.421Z,102667.84
2018-11-14T04:13:50.235Z,102669.48
2018-11-14T04:16:20.267Z,102653.69
2018-11-14T04:18:50.044Z,102656.06
2018-11-14T04:21:19.966Z,102656.25
2018-11-14T04:23:51.250Z,102653.31
2018-11-14T04:26:20.912Z,102650.44
2018-11-14T04:28:50.723Z,102646.63
2018-11-14T04:31:20.740Z,102643.66
2018-11-14T04:33:51.094Z,102637.53
2018-11-14T04:36:20.821Z,102636.01
2018-11-14T04:38:50.644Z,102633.27
2018-11-14T04:41:20.455Z,102628.41
2018-11-14T04:43:50.128Z,102624.20
2018-11-14T04:46:19.955Z,102624.05
2018-11-14T04:48:49.847Z,102621.91
2018-11-14T04:51:19.744Z,102619.47
2018-11-14T04:53:49.587Z,102618.43
2018-11-14T04:56:19.585Z,102623.73
2018-11-14T04:58:49.533Z,102625.06
2018-11-14T05:01:19.469Z,102626.98
2018-11-14T05:03:49.265Z,102632.74
2018-11-14T05:06:18.967Z,102638.05
2018-11-14T05:08:48.715Z,102641.52
2018-11-14T05:11:19.063Z,102635.90
2018-11-14T05:13:48.808Z,102630.59
2018-11-14T05:16:18.647Z,102628.16
2018-11-14T05:18:48.497Z,102630.53
2018-11-14T05:21:18.259Z,102635.11
2018-11-14T05:23:48.963Z,102643.35
2018-11-14T05:26:18.679Z,102639.82
2018-11-14T05:28:48.397Z,102630.03
2018-11-14T05:31:18.312Z,102637.30
2018-11-14T05:33:48.070Z,102627.06
2018-11-14T05:36:17.781Z,102621.98
2018-11-14T05:38:47.599Z,102631.17
2018-11-14T05:41:17.563Z,102626.05
2018-11-14T05:43:48.177Z,102626.84
2018-11-14T05:46:18.084Z,102630.59
2018-11-14T05:48:47.979Z,102628.16
2018-11-14T05:51:17.736Z,102634.66
2018-11-14T05:53:47.693Z,102630.69
2018-11-14T05:56:17.415Z,102623.96
2018-11-14T05:58:47.302Z,102618.66
2018-11-14T06:01:17.255Z,102623.17
2018-11-14T06:03:47.014Z,102619.92
2018-11-14T06:06:16.710Z,102620.56
2018-11-14T06:08:46.336Z,102628.97
2018-11-14T06:11:16.255Z,102628.68
2018-11-14T06:13:46.138Z,102630.23
2018-11-14T06:16:16.027Z,102620.50
2018-11-14T06:18:46.469Z,102619.99
2018-11-14T06:21:16.388Z,102621.09
2018-11-14T06:23:46.441Z,102622.64
2018-11-14T06:26:16.285Z,102627.41
2018-11-14T06:28:46.217Z,102626.63
2018-11-14T06:31:16.182Z,102622.87
2018-11-14T06:33:45.947Z,102619.45
2018-11-14T06:36:15.810Z,102621.23
2018-11-14T06:38:45.599Z,102622.27
2018-11-14T06:41:15.298Z,102626.53
2018-11-14T06:43:45.169Z,102630.52
2018-11-14T06:46:14.977Z,102623.59
2018-11-14T06:48:44.770Z,102627.04
2018-11-14T06:51:14.723Z,102629.63
2018-11-14T06:53:44.508Z,102628.59
2018-11-14T06:56:14.429Z,102619.02
2018-11-14T06:58:44.282Z,102619.30
2018-11-14T07:01:13.958Z,102614.59
2018-11-14T07:03:43.783Z,102616.80
2018-11-14T07:06:13.929Z,102636.85
2018-11-14T07:08:43.581Z,102638.87
2018-11-14T07:11:14.315Z,102651.09
2018-11-14T07:13:44.949Z,102647.99
2018-11-14T07:16:14.674Z,102653.61
2018-11-14T07:18:44.438Z,102672.69
2018-11-14T07:21:14.263Z,102668.49
2018-11-14T07:23:44.151Z,102669.91
2018-11-14T07:26:14.023Z,102680.91
2018-11-14T07:28:43.841Z,102682.60
2018-11-14T07:31:13.567Z,102678.17
2018-11-14T07:33:43.582Z,102686.06
2018-11-14T07:36:13.277Z,102684.64
2018-11-14T07:38:50.112Z,102675.31
2018-11-14T07:41:26.114Z,102677.58
2018-11-14T07:43:55.887Z,102671.82
2018-11-14T07:46:26.715Z,102671.83
2018-11-14T07:48:56.503Z,102678.21
2018-11-14T07:51:26.141Z,102670.61
2018-11-14T07:53:55.925Z,102676.83
2018-11-14T07:56:25.959Z,102681.59
2018-11-14T07:58:55.931Z,102675.86
2018-11-14T08:01:25.769Z,102677.67
2018-11-14T08:03:56.166Z,102683.84
2018-11-14T08:06:26.005Z,102685.20
2018-11-14T08:08:55.978Z,102682.79
2018-11-14T08:11:25.807Z,102691.23
2018-11-14T08:13:55.811Z,102694.63
2018-11-14T08:16:25.635Z,102688.88
2018-11-14T08:18:55.485Z,102690.21
2018-11-14T08:21:26.527Z,102688.30
2018-11-14T08:23:56.311Z,102691.95
2018-11-14T08:26:26.055Z,102692.70
2018-11-14T08:28:55.919Z,102697.00
2018-11-14T08:31:26.411Z,102691.02
2018-11-14T08:33:56.164Z,102694.81
2018-11-14T08:36:26.079Z,102689.77
2018-11-14T08:38:56.004Z,102700.56
2018-11-14T08:41:25.764Z,102688.27
2018-11-14T08:43:55.507Z,102696.77
2018-11-14T08:46:25.176Z,102690.70
2018-11-14T08:48:54.958Z,102691.44
2018-11-14T08:51:24.920Z,102698.67
2018-11-14T08:53:54.755Z,102701.28
2018-11-14T08:56:24.535Z,102697.92
2018-11-14T08:58:54.306Z,102691.50
2018-11-14T09:01:24.020Z,102690.92
2018-11-14T09:03:53.759Z,102686.42
2018-11-14T09:06:23.574Z,102680.73
2018-11-14T09:08:53.258Z,102683.84
2018-11-14T09:11:23.188Z,102683.88
2018-11-14T09:13:52.731Z,102678.05
2018-11-14T09:16:22.425Z,102678.22
2018-11-14T09:18:52.316Z,102680.45
2018-11-14T09:21:22.318Z,102678.19
2018-11-14T09:23:52.160Z,102680.34
2018-11-14T09:26:22.087Z,102681.44
2018-11-14T09:28:51.862Z,102689.23
2018-11-14T09:31:21.646Z,102689.63
2018-11-14T09:33:51.360Z,102688.91
2018-11-14T09:36:21.282Z,102686.77
2018-11-14T09:38:51.163Z,102687.92
2018-11-14T09:41:21.367Z,102688.60
2018-11-14T09:43:51.042Z,102693.97
2018-11-14T09:46:20.770Z,102697.55
2018-11-14T09:48:50.599Z,102695.45
2018-11-14T09:51:20.521Z,102693.84
2018-11-14T09:53:50.380Z,102696.23
2018-11-14T09:56:20.165Z,102693.59
2018-11-14T09:58:50.019Z,102688.41
2018-11-14T10:01:19.887Z,102689.17
2018-11-14T10:03:49.839Z,102697.17
2018-11-14T10:06:19.762Z,102689.99
2018-11-14T10:08:49.786Z,102693.02
2018-11-14T10:11:19.424Z,102691.75
2018-11-14T10:13:49.198Z,102684.11
2018-11-14T10:16:19.029Z,102685.50
2018-11-14T10:18:48.912Z,102681.95
2018-11-14T10:21:18.643Z,102687.45
2018-11-14T10:23:48.636Z,102684.95
2018-11-14T10:26:18.494Z,102682.55
2018-11-14T10:28:48.356Z,102689.80
2018-11-14T10:31:18.196Z,102690.02
2018-11-14T10:33:48.539Z,102690.78
2018-11-14T10:36:18.388Z,102691.19
2018-11-14T10:38:48.223Z,102679.97
2018-11-14T10:41:17.939Z,102678.72
2018-11-14T10:43:47.858Z,102677.37
2018-11-14T10:46:17.743Z,102674.70
2018-11-14T10:48:47.552Z,102667.84
2018-11-14T10:51:17.338Z,102659.72
2018-11-14T10:53:47.137Z,102651.70
2018-11-14T10:56:16.946Z,102641.42
2018-11-14T10:58:46.750Z,102639.08
2018-11-14T11:01:21.628Z,102635.14
2018-11-14T11:03:56.490Z,102627.59
2018-11-14T11:06:36.207Z,102634.14
2018-11-14T11:09:16.834Z,102632.67
2018-11-14T11:11:51.639Z,102625.41
2018-11-14T11:14:26.628Z,102625.99
2018-11-14T11:17:01.513Z,102620.13
2018-11-14T11:19:32.203Z,102619.39
2018-11-14T11:22:02.238Z,102621.30
2018-11-14T11:24:31.917Z,102609.67
2018-11-14T11:27:02.151Z,102608.90
2018-11-14T11:29:31.859Z,102599.97
2018-11-14T11:32:01.892Z,102599.36
2018-11-14T11:34:31.694Z,102592.41
2018-11-14T11:37:01.470Z,102588.92
2018-11-14T11:39:31.670Z,102589.87
2018-11-14T11:42:02.117Z,102586.36
2018-11-14T11:44:32.027Z,102584.73
2018-11-14T11:47:01.843Z,102588.22
2018-11-14T11:49:31.690Z,102593.31
2018-11-14T11:52:01.465Z,102590.95
2018-11-14T11:54:31.287Z,102585.03
2018-11-14T11:57:01.196Z,102580.19
2018-11-14T11:59:31.033Z,102580.25
2018-11-14T12:02:00.922Z,102573.27
2018-11-14T12:04:30.806Z,102574.41
2018-11-14T12:07:00.474Z,102574.30
2018-11-14T12:09:30.343Z,102584.94
2018-11-14T12:12:00.370Z,102576.88
2018-11-14T12:14:30.111Z,102569.94
2018-11-14T12:16:59.912Z,102578.53
2018-11-14T12:19:29.694Z,102577.23
2018-11-14T12:21:59.513Z,102584.23
2018-11-14T12:24:29.379Z,102586.45
2018-11-14T12:26:59.314Z,102581.93
2018-11-14T12:29:29.594Z,102585.54
2018-11-14T12:32:00.506Z,102588.22
2018-11-14T12:34:30.228Z,102581.80
2018-11-14T12:37:00.067Z,102579.22
2018-11-14T12:39:29.865Z,102580.69
2018-11-14T12:41:59.652Z,102575.81
2018-11-14T12:44:29.606Z,102569.53
2018-11-14T12:46:59.340Z,102562.58
2018-11-14T12:49:29.234Z,102558.30
2018-11-14T12:51:59.037Z,102556.67
2018-11-14T12:54:28.840Z,102556.93
2018-11-14T12:56:58.705Z,102555.07
2018-11-14T12:59:28.482Z,102555.40
2018-11-14T13:01:58.171Z,102554.06
2018-11-14T13:04:28.487Z,102550.86
2018-11-14T13:06:58.362Z,102554.70
2018-11-14T13:09:28.195Z,102560.59
2018-11-14T13:11:58.018Z,102554.27
2018-11-14T13:14:27.722Z,102560.17
2018-11-14T13:16:57.480Z,102553.23
2018-11-14T13:19:27.275Z,102562.93
2018-11-14T13:21:57.079Z,102559.75
2018-11-14T13:24:26.758Z,102554.66
2018-11-14T13:26:56.473Z,102552.77
2018-11-14T13:29:26.723Z,102557.52
2018-11-14T13:31:56.713Z,102555.13
2018-11-14T13:34:26.914Z,102552.45
2018-11-14T13:36:56.888Z,102563.77
2018-11-14T13:39:26.706Z,102557.57
2018-11-14T13:41:56.719Z,102558.62
2018-11-14T13:44:26.553Z,102555.47
2018-11-14T13:46:56.441Z,102559.77
2018-11-14T13:49:26.483Z,102559.94
2018-11-14T13:51:56.182Z,102551.85
2018-11-14T13:54:26.112Z,102552.08
2018-11-14T13:56:56.147Z,102549.67
2018-11-14T13:59:26.366Z,102553.89
2018-11-14T14:01:56.327Z,102550.34
2018-11-14T14:04:26.335Z,102544.33
2018-11-14T14:06:56.301Z,102547.72
2018-11-14T14:09:27.107Z,102551.06
2018-11-14T14:11:57.011Z,102541.13
2018-11-14T14:14:27.096Z,102538.63
2018-11-14T14:16:56.850Z,102533.20
2018-11-14T14:19:26.863Z,102538.45
2018-11-14T14:21:56.704Z,102542.69
2018-11-14T14:24:26.471Z,102535.66
2018-11-14T14:26:56.693Z,102527.58
2018-11-14T14:29:26.426Z,102538.23
2018-11-14T14:31:56.311Z,102530.52
2018-11-14T14:34:26.920Z,102541.12
2018-11-14T14:36:56.784Z,102536.53
2018-11-14T14:39:26.627Z,102542.13
2018-11-14T14:41:56.518Z,102536.73
2018-11-14T14:44:26.469Z,102528.11
2018-11-14T14:46:56.268Z,102524.09
2018-11-14T14:49:26.082Z,102524.30
2018-11-14T14:51:56.142Z,102523.16
2018-11-14T14:54:26.074Z,102516.69
2018-11-14T14:56:55.931Z,102518.48
2018-11-14T14:59:25.716Z,102511.50
2018-11-14T15:01:56.114Z,102511.37
2018-11-14T15:04:26.088Z,102511.61
2018-11-14T15:06:57.032Z,102506.84
2018-11-14T15:09:26.789Z,102510.73
2018-11-14T15:11:56.543Z,102506.40
2018-11-14T15:14:26.354Z,102501.00
2018-11-14T15:16:56.039Z,102498.78
2018-11-14T15:19:25.862Z,102498.73
2018-11-14T15:21:55.813Z,102493.31
2018-11-14T15:24:25.723Z,102491.34
2018-11-14T15:26:56.226Z,102487.59
2018-11-14T15:29:26.063Z,102486.97
2018-11-14T15:31:56.029Z,102480.09
2018-11-14T15:34:25.999Z,102479.70
2018-11-14T15:36:55.894Z,102480.11
2018-11-14T15:39:25.793Z,102473.07
2018-11-14T15:41:55.730Z,102464.98
2018-11-14T15:44:25.720Z,102471.02
2018-11-14T15:46:55.633Z,102474.41
2018-11-14T15:49:25.478Z,102479.66
2018-11-14T15:51:55.334Z,102480.92
2018-11-14T15:54:25.183Z,102474.72
2018-11-14T15:56:55.504Z,102477.30
2018-11-14T15:59:25.347Z,102479.70
2018-11-14T16:01:55.446Z,102477.47
2018-11-14T16:04:25.301Z,102476.33
2018-11-14T16:06:55.310Z,102465.37
2018-11-14T16:09:25.317Z,102457.56
2018-11-14T16:11:55.402Z,102449.24
2018-11-14T16:14:25.283Z,102449.97
2018-11-14T16:16:55.155Z,102451.73
2018-11-14T16:19:24.938Z,102457.15
2018-11-14T16:21:54.771Z,102451.68
2018-11-14T16:24:24.470Z,102457.65
2018-11-14T16:26:54.258Z,102458.08
2018-11-14T16:29:24.156Z,102453.48
2018-11-14T16:31:54.165Z,102455.30
2018-11-14T16:34:24.149Z,102459.23
2018-11-14T16:36:53.877Z,102465.13
2018-11-14T16:39:24.365Z,102460.77
2018-11-14T16:41:54.281Z,102463.09
2018-11-14T16:44:24.045Z,102459.27
2018-11-14T16:46:53.820Z,102459.27
2018-11-14T16:49:23.712Z,102455.83
2018-11-14T16:51:53.566Z,102466.59
2018-11-14T16:54:23.369Z,102462.80
2018-11-14T16:56:53.397Z,102454.89
2018-11-14T16:59:23.223Z,102451.63
2018-11-14T17:01:53.199Z,102456.13
2018-11-14T17:04:23.167Z,102448.14
2018-11-14T17:06:53.230Z,102453.97
2018-11-14T17:09:24.841Z,102452.85
2018-11-14T17:11:55.535Z,102457.14
2018-11-14T17:14:25.901Z,102451.83
2018-11-14T17:16:55.717Z,102448.01
2018-11-14T17:19:25.821Z,102446.67
2018-11-14T17:21:56.031Z,102447.73
2018-11-14T17:24:26.124Z,102451.93
2018-11-14T17:26:56.159Z,102450.91
2018-11-14T17:29:26.198Z,102451.39
2018-11-14T17:31:56.177Z,102456.16
2018-11-14T17:34:26.361Z,102446.06
2018-11-14T17:36:56.265Z,102447.05
2018-11-14T17:39:26.408Z,102450.46
2018-11-14T17:41:56.575Z,102453.13
2018-11-14T17:44:26.415Z,102449.64
2018-11-14T17:46:56.169Z,102453.59
2018-11-14T17:49:26.115Z,102453.02
2018-11-14T17:51:57.140Z,102454.00
2018-11-14T17:54:27.370Z,102449.95
2018-11-14T17:56:57.702Z,102456.32
2018-11-14T17:59:27.499Z,102451.95
2018-11-14T18:01:57.790Z,102450.39
2018-11-14T18:04:27.768Z,102450.63
2018-11-14T18:06:57.737Z,102448.70
2018-11-14T18:09:27.555Z,102445.70
2018-11-14T18:11:57.479Z,102448.84
2018-11-14T18:14:28.031Z,102451.70
2018-11-14T18:16:57.858Z,102444.74
2018-11-14T18:19:27.732Z,102440.17
2018-11-14T18:21:57.561Z,102442.25
2018-11-14T18:24:27.479Z,102434.00
2018-11-14T18:26:57.179Z,102433.66
2018-11-14T18:29:26.897Z,102432.09
2018-11-14T18:31:56.969Z,102426.89
2018-11-14T18:34:26.710Z,102427.92
2018-11-14T18:36:56.646Z,102418.38
2018-11-14T18:39:26.345Z,102412.83
2018-11-14T18:41:56.593Z,102421.27
2018-11-14T18:44:26.522Z,102422.91
2018-11-14T18:46:56.323Z,102423.11
2018-11-14T18:49:26.247Z,102415.38
2018-11-14T18:51:56.252Z,102423.81
2018-11-14T18:54:26.021Z,102417.75
2018-11-14T18:56:55.724Z,102414.00
2018-11-14T18:59:25.657Z,102417.69
2018-11-14T19:01:55.583Z,102408.69
2018-11-14T19:04:25.447Z,102411.58
2018-11-14T19:06:55.802Z,102409.78
2018-11-14T19:09:25.804Z,102404.63
2018-11-14T19:11:56.292Z,102414.86
2018-11-14T19:14:26.106Z,102417.75
2018-11-14T19:16:55.947Z,102418.14
2018-11-14T19:19:26.186Z,102414.86
2018-11-14T19:21:56.055Z,102417.59
2018-11-14T19:24:26.569Z,102414.39
2018-11-14T19:26:56.804Z,102409.53
2018-11-14T19:29:26.586Z,102407.62
2018-11-14T19:31:56.568Z,102410.28
2018-11-14T19:34:26.373Z,102406.95
2018-11-14T19:36:56.266Z,102409.38
2018-11-14T19:39:26.307Z,102408.22
2018-11-14T19:41:56.331Z,102405.80
2018-11-14T19:44:26.208Z,102410.84
2018-11-14T19:46:55.947Z,102406.27
2018-11-14T19:49:25.818Z,102407.29
2018-11-14T19:51:55.645Z,102401.23
2018-11-14T19:54:25.479Z,102403.14
2018-11-14T19:56:55.862Z,102399.90
2018-11-14T19:59:25.902Z,102403.61
2018-11-14T20:01:55.953Z,102398.30
2018-11-14T20:04:25.597Z,102406.61
2018-11-14T20:06:55.598Z,102395.91
2018-11-14T20:09:25.514Z,102403.30
2018-11-14T20:11:55.486Z,102396.66
2018-11-14T20:14:25.673Z,102395.44
2018-11-14T20:16:55.625Z,102392.98
2018-11-14T20:19:25.622Z,102398.70
2018-11-14T20:21:55.527Z,102400.84
2018-11-14T20:24:25.484Z,102401.97
2018-11-14T20:26:55.220Z,102403.54
2018-11-14T20:29:25.071Z,102412.80
2018-11-14T20:31:54.859Z,102402.95
2018-11-14T20:34:24.741Z,102404.39
2018-11-14T20:36:54.545Z,102404.63
2018-11-14T20:39:24.243Z,102401.39
2018-11-14T20:41:54.625Z,102399.20
2018-11-14T20:44:24.572Z,102401.59
2018-11-14T20:46:54.346Z,102400.49
2018-11-14T20:49:24.108Z,102399.09
2018-11-14T20:51:53.822Z,102400.14
2018-11-14T20:54:23.619Z,102405.50
2018-11-14T20:56:53.586Z,102400.03
2018-11-14T20:59:23.519Z,102401.02
2018-11-14T21:01:53.989Z,102396.72
2018-11-14T21:04:24.120Z,102394.84
2018-11-14T21:06:54.336Z,102393.44
2018-11-14T21:09:24.473Z,102401.41
2018-11-14T21:11:54.321Z,102391.59
2018-11-14T21:14:24.065Z,102393.95
2018-11-14T21:16:53.871Z,102395.51
2018-11-14T21:19:23.932Z,102392.27
2018-11-14T21:21:53.689Z,102395.98
2018-11-14T21:24:23.507Z,102393.28
2018-11-14T21:26:53.512Z,102397.77
2018-11-14T21:29:23.557Z,102396.21
2018-11-14T21:31:53.509Z,102396.48
2018-11-14T21:34:23.315Z,102395.59
2018-11-14T21:36:53.097Z,102400.20
2018-11-14T21:39:22.783Z,102395.59
2018-11-14T21:41:53.906Z,102397.81
2018-11-14T21:44:23.674Z,102397.46
2018-11-14T21:46:53.688Z,102400.12
2018-11-14T21:49:28.671Z,102398.75
2018-11-14T21:51:59.597Z,102403.98
2018-11-14T21:54:29.310Z,102402.89
2018-11-14T21:56:59.084Z,102398.98
2018-11-14T21:59:28.979Z,102398.55
2018-11-14T22:01:58.845Z,102398.50
2018-11-14T22:04:28.814Z,102406.16
2018-11-14T22:06:58.681Z,102402.64
2018-11-14T22:09:28.385Z,102401.47
2018-11-14T22:11:58.304Z,102400.14
2018-11-14T22:14:28.829Z,102402.13
2018-11-14T22:16:58.706Z,102405.76
2018-11-14T22:19:28.648Z,102401.47
2018-11-14T22:21:58.660Z,102403.26
2018-11-14T22:24:28.516Z,102398.64
2018-11-14T22:26:58.267Z,102393.84
2018-11-14T22:29:28.131Z,102403.41
2018-11-14T22:31:58.179Z,102404.35
2018-11-14T22:34:28.353Z,102401.06
2018-11-14T22:36:58.956Z,102403.41
2018-11-14T22:39:28.815Z,102403.09
2018-11-14T22:41:58.607Z,102408.82
2018-11-14T22:44:28.391Z,102399.37
2018-11-14T22:46:58.073Z,102405.55
2018-11-14T22:49:28.166Z,102400.08
2018-11-14T22:51:58.071Z,102402.28
2018-11-14T22:54:28.030Z,102396.85
2018-11-14T22:56:58.077Z,102400.96
2018-11-14T22:59:27.827Z,102405.89
2018-11-14T23:01:57.852Z,102406.27
2018-11-14T23:04:28.333Z,102401.88
2018-11-14T23:06:58.099Z,102404.13
2018-11-14T23:09:27.929Z,102404.22
2018-11-14T23:11:57.762Z,102402.98
2018-11-14T23:14:27.547Z,102407.19
2018-11-14T23:16:57.287Z,102408.80
2018-11-14T23:19:27.071Z,102403.13
2018-11-14T23:21:56.854Z,102398.36
2018-11-14T23:24:26.913Z,102396.85
2018-11-14T23:26:56.938Z,102407.78
2018-11-14T23:29:26.906Z,102404.83
2018-11-14T23:31:56.647Z,102409.13
2018-11-14T23:34:26.484Z,102399.98
2018-11-14T23:36:56.312Z,102404.19
2018-11-14T23:39:26.260Z,102398.97
2018-11-14T23:41:56.122Z,102400.30
2018-11-14T23:44:26.059Z,102403.41
2018-11-14T23:46:55.770Z,102401.08
2018-11-14T23:49:25.643Z,102393.89
2018-11-14T23:51:55.646Z,102396.61
2018-11-14T23:54:25.381Z,102401.86
2018-11-14T23:56:55.211Z,102397.88
2018-11-14T23:59:25.239Z,102395.05
